Thunderstorms From: 25-05-2018 15:00 Until: 26-05-2018 15:00 warning for: Thunderstorms Level: Yellow info button

Although rather usual in this region, locally or potentially dangerous phenomena are expected. (such as local winds, summer thunderstorms, rising streams or high waves) Be aware and pay attention to the latest weather updates, especially if you carry out activities exposed to weather or close to a stream or shoreline. 


Meteo18 Weather Cam more information Meteo18 Weather Cam


warning for Thunderstorms more information blitzortung!


Rain radar more information rain snow radar


Visit our other weather sites:

Template documentation
and downloads

And another site



Weather Underground History page Text

Daily Summary for March 26, 2016 Units:  Metric    English   Both
« Previous Day
Next Day »
Daily Weekly Monthly Yearly Custom
  High: Low: Average:
Temperature: -17.8 °C -14.7 °C -11.2 °C
Dew Point: -17.8 °C -14.9 °C -13 °C
Humidity: Humidity % 51 % 82 %
Wind Speed: 0 km/h 0 km/h 3.9 km/h
Wind Gust: 0 km/h - -
Wind:- - SW
Pressure: 0 hPa 34063.2 hPa -
Precipitation: 0 mm    
Historical Graphs
 
 
Tabular Data for March 26, 2016
Time Temperature Dew Point Pressure Wind Wind Speed Wind Gust Humidity Rainfall Rate (Hourly)
-17.8 °C -17.8 °C 0 hPa Calm     Humidity % 0 mm
00:02 -12.3 °C -12.7 °C 34520.3 hPa SSW 5.1 km/h 10.3 km/h 96 % 0 mm
00:12 -12.3 °C -12.7 °C 34520.3 hPa SW 7.7 km/h 12.9 km/h 96 % 0 mm
00:17 -12.4 °C -12.7 °C 34520.3 hPa SW 2.6 km/h 12.9 km/h 96 % 0 mm
00:22 -12.4 °C -12.7 °C 34520.3 hPa WSW 5.1 km/h 12.9 km/h 96 % 0 mm
00:27 -12.4 °C -12.7 °C 34533.8 hPa SW 5.1 km/h 12.9 km/h 96 % 0 mm
00:32 -12.4 °C -12.7 °C 34520.3 hPa WSW 2.6 km/h 12.9 km/h 96 % 0 mm
00:37 -12.4 °C -12.7 °C 34520.3 hPa SW 5.1 km/h 12.9 km/h 96 % 0 mm
00:42 -12.4 °C -12.7 °C 34520.3 hPa WSW 5.1 km/h 12.9 km/h 96 % 0 mm
00:47 -12.4 °C -12.7 °C 34520.3 hPa SW 2.6 km/h 12.9 km/h 96 % 0 mm
00:57 -12.4 °C -12.7 °C 34520.3 hPa SSW 2.6 km/h 18.2 km/h 96 % 0 mm
01:02 -12.4 °C -12.7 °C 34520.3 hPa SW 5.1 km/h 18.2 km/h 96 % 0 mm
01:07 -12.4 °C -12.7 °C 34533.8 hPa WSW 2.6 km/h 15.6 km/h 96 % 0 mm
01:12 -12.4 °C -12.7 °C 34533.8 hPa SW 5.1 km/h 15.6 km/h 96 % 0 mm
01:17 -12.4 °C -12.8 °C 34533.8 hPa SW 2.6 km/h 15.6 km/h 95 % 0 mm
01:22 -12.4 °C -12.9 °C 34520.3 hPa WSW 10.3 km/h 15.6 km/h 95 % 0 mm
01:27 -12.4 °C -12.9 °C 34520.3 hPa Calm   15.6 km/h 95 % 0 mm
01:32 -12.4 °C -12.9 °C 34520.3 hPa SW 10.3 km/h 15.6 km/h 95 % 0 mm
01:42 -12.4 °C -12.9 °C 34520.3 hPa SW 5.1 km/h 12.9 km/h 95 % 0 mm
01:47 -12.4 °C -12.9 °C 34520.3 hPa SSW 2.6 km/h 12.9 km/h 95 % 0 mm
01:57 -12.4 °C -12.9 °C 34520.3 hPa SW 2.6 km/h 7.7 km/h 95 % 0 mm
02:02 -12.4 °C -12.9 °C 34520.3 hPa WSW 2.6 km/h 7.7 km/h 95 % 0 mm
02:07 -12.4 °C -12.9 °C 34510.1 hPa WSW 2.6 km/h 7.7 km/h 95 % 0 mm
02:12 -12.5 °C -12.9 °C 34510.1 hPa SW 2.6 km/h 7.7 km/h 95 % 0 mm
02:17 -12.5 °C -12.8 °C 34510.1 hPa SSW 2.6 km/h 7.7 km/h 96 % 0 mm
02:27 -12.6 °C -12.9 °C 34510.1 hPa Calm   12.9 km/h 96 % 0 mm
02:37 -12.6 °C -12.9 °C 34510.1 hPa SW 10.3 km/h 10.3 km/h 96 % 0 mm
02:42 -12.6 °C -12.9 °C 34510.1 hPa SW 7.7 km/h 10.3 km/h 96 % 0 mm
02:47 -12.6 °C -12.9 °C 34510.1 hPa SSW 5.1 km/h 10.3 km/h 96 % 0 mm
02:57 -12.7 °C -13 °C 34510.1 hPa WSW 5.1 km/h 10.3 km/h 96 % 0 mm
03:02 -12.7 °C -13 °C 34510.1 hPa SW 2.6 km/h 10.3 km/h 96 % 0 mm
03:07 -12.7 °C -13 °C 34496.6 hPa SW 2.6 km/h 10.3 km/h 96 % 0 mm
03:12 -12.7 °C -13 °C 34496.6 hPa SW 2.6 km/h 10.3 km/h 96 % 0 mm
03:17 -12.7 °C -13.1 °C 34496.6 hPa Calm   10.3 km/h 96 % 0 mm
03:22 -12.7 °C -13.1 °C 34496.6 hPa Calm   10.3 km/h 96 % 0 mm
03:32 -12.9 °C -13.2 °C 34496.6 hPa Calm   7.7 km/h 96 % 0 mm
03:37 -12.9 °C -13.3 °C 34496.6 hPa Calm   2.6 km/h 96 % 0 mm
03:42 -12.9 °C -13.2 °C 34496.6 hPa SW 2.6 km/h 2.6 km/h 97 % 0 mm
03:47 -12.9 °C -13.2 °C 34496.6 hPa Calm   5.1 km/h 97 % 0 mm
03:52 -12.9 °C -13.2 °C 34496.6 hPa Calm   5.1 km/h 97 % 0 mm
03:57 -12.9 °C -13.2 °C 34486.4 hPa Calm   2.6 km/h 97 % 0 mm
04:02 -12.9 °C -13.2 °C 34486.4 hPa Calm   2.6 km/h 97 % 0 mm
04:07 -12.9 °C -13.2 °C 34486.4 hPa Calm   5.1 km/h 97 % 0 mm
04:12 -12.9 °C -13.2 °C 34486.4 hPa Calm   5.1 km/h 97 % 0 mm
04:17 -12.9 °C -13.2 °C 34486.4 hPa Calm   5.1 km/h 97 % 0 mm
04:22 -13 °C -13.2 °C 34486.4 hPa Calm   5.1 km/h 97 % 0 mm
04:32 -13.1 °C -13.4 °C 34486.4 hPa Calm   5.1 km/h 96 % 0 mm
04:37 -13.1 °C -13.3 °C 34486.4 hPa Calm   2.6 km/h 97 % 0 mm
04:42 -13.1 °C -13.3 °C 34486.4 hPa Calm   2.6 km/h 97 % 0 mm
04:47 -13.2 °C -13.4 °C 34486.4 hPa SW 2.6 km/h 5.1 km/h 97 % 0 mm
04:52 -13.2 °C -13.4 °C 34486.4 hPa Calm   5.1 km/h 97 % 0 mm
04:57 -13.2 °C -13.4 °C 34486.4 hPa Calm   5.1 km/h 97 % 0 mm
05:02 -13.2 °C -13.4 °C 34486.4 hPa Calm   5.1 km/h 97 % 0 mm
05:07 -13.2 °C -13.4 °C 34486.4 hPa SW 2.6 km/h 5.1 km/h 97 % 0 mm
05:17 -13.2 °C -13.4 °C 34486.4 hPa Calm   5.1 km/h 97 % 0 mm
05:22 -13.2 °C -13.4 °C 34486.4 hPa Calm   5.1 km/h 97 % 0 mm
05:27 -13.2 °C -13.4 °C 34486.4 hPa Calm   2.6 km/h 97 % 0 mm
05:32 -13.2 °C -13.4 °C 34486.4 hPa Calm   2.6 km/h 97 % 0 mm
05:37 -13.3 °C -13.5 °C 34486.4 hPa Calm   2.6 km/h 97 % 0 mm
05:42 -13.3 °C -13.5 °C 34486.4 hPa Calm   2.6 km/h 97 % 0 mm
05:52 -13.3 °C -13.6 °C 34486.4 hPa Calm   2.6 km/h 97 % 0 mm
05:57 -13.3 °C -13.7 °C 34486.4 hPa Calm   5.1 km/h 96 % 0 mm
06:02 -13.4 °C -13.7 °C 34476.3 hPa Calm   5.1 km/h 96 % 0 mm
06:12 -13.5 °C -13.8 °C 34486.4 hPa Calm   2.6 km/h 96 % 0 mm
06:17 -13.6 °C -13.9 °C 34486.4 hPa Calm   2.6 km/h 96 % 0 mm
06:22 -13.6 °C -13.9 °C 34476.3 hPa Calm   2.6 km/h 96 % 0 mm
06:32 -13.7 °C -14 °C 34486.4 hPa SW 2.6 km/h 2.6 km/h 96 % 0 mm
06:37 -13.8 °C -14.1 °C 34486.4 hPa SW 2.6 km/h 2.6 km/h 96 % 0 mm
06:42 -14 °C -14.4 °C 34476.3 hPa Calm   2.6 km/h 95 % 0 mm
06:47 -14.1 °C -14.5 °C 34476.3 hPa Calm   2.6 km/h 95 % 0 mm
06:52 -14.2 °C -14.6 °C 34476.3 hPa Calm   2.6 km/h 96 % 0 mm
06:57 -14.3 °C -14.6 °C 34476.3 hPa SW 2.6 km/h 5.1 km/h 96 % 0 mm
07:02 -14.4 °C -14.7 °C 34476.3 hPa Calm   5.1 km/h 96 % 0 mm
07:07 -14.5 °C -14.8 °C 34486.4 hPa Calm   5.1 km/h 96 % 0 mm
07:12 -14.6 °C -14.9 °C 34476.3 hPa Calm   2.6 km/h 96 % 0 mm
07:17 -14.6 °C -14.9 °C 34486.4 hPa SW 2.6 km/h 2.6 km/h 96 % 0 mm
07:22 -14.7 °C -14.9 °C 34486.4 hPa Calm   2.6 km/h 97 % 0 mm
07:32 -14.6 °C -14.8 °C 34486.4 hPa Calm   2.6 km/h 97 % 0 mm
07:37 -14.6 °C -14.8 °C 34476.3 hPa Calm   2.6 km/h 97 % 0 mm
07:42 -14.5 °C -14.7 °C 34486.4 hPa Calm   2.6 km/h 97 % 0 mm
07:47 -14.3 °C -14.4 °C 34486.4 hPa Calm   2.6 km/h 98 % 0 mm
07:52 -14.2 °C -14.3 °C 34486.4 hPa Calm     98 % 0 mm
07:57 -14.1 °C -14.2 °C 34476.3 hPa Calm     98 % 0 mm
08:02 -13.9 °C -14.1 °C 34476.3 hPa West 5.1 km/h 5.1 km/h 98 % 0 mm
08:17 -13.6 °C -13.8 °C 34476.3 hPa Calm   7.7 km/h 97 % 0 mm
08:22 -13.4 °C -13.8 °C 34476.3 hPa SW 2.6 km/h 7.7 km/h 96 % 0 mm
08:27 -13.3 °C -13.6 °C 34462.7 hPa SW 2.6 km/h 7.7 km/h 96 % 0 mm
08:32 -13.2 °C -13.7 °C 34462.7 hPa WSW 2.6 km/h 7.7 km/h 95 % 0 mm
08:42 -12.9 °C -13.4 °C 34462.7 hPa Calm   7.7 km/h 94 % 0 mm
08:47 -12.7 °C -13.4 °C 34462.7 hPa WSW 2.6 km/h 7.7 km/h 92 % 0 mm
08:52 -12.6 °C -13.4 °C 34462.7 hPa West 2.6 km/h 7.7 km/h 91 % 0 mm
08:57 -12.3 °C -13.3 °C 34462.7 hPa West 2.6 km/h 7.7 km/h 89 % 0 mm
09:02 -12.1 °C -13 °C 34462.7 hPa West 2.6 km/h 12.9 km/h 90 % 0 mm
09:07 -11.8 °C -12.8 °C 34462.7 hPa South 2.6 km/h 12.9 km/h 89 % 0 mm
09:12 -11.7 °C -13 °C 34462.7 hPa West 5.1 km/h 12.9 km/h 86 % 0 mm
09:17 -11.6 °C -12.8 °C 34462.7 hPa West 2.6 km/h 12.9 km/h 86 % 0 mm
09:22 -11.5 °C -12.9 °C 34462.7 hPa Calm   12.9 km/h 84 % 0 mm
09:27 -11.3 °C -12.8 °C 34462.7 hPa WSW 2.6 km/h 12.9 km/h 84 % 0 mm
09:32 -11.2 °C -12.6 °C 34462.7 hPa Calm   12.9 km/h 85 % 0 mm
09:37 -10.9 °C -12.5 °C 34462.7 hPa Calm   12.9 km/h 83 % 0 mm
09:42 -10.8 °C -12.5 °C 34462.7 hPa West 2.6 km/h 7.7 km/h 82 % 0 mm
09:52 -10.6 °C -12.3 °C 34462.7 hPa Calm   15.6 km/h 82 % 0 mm
10:02 -10.4 °C -12.3 °C 34462.7 hPa SW 2.6 km/h 15.6 km/h 80 % 0 mm
10:12 -10.2 °C -12.5 °C 34452.6 hPa Calm   20.8 km/h 76 % 0 mm
10:17 -10.3 °C -12.9 °C 34462.7 hPa WSW 10.3 km/h 20.8 km/h 73 % 0 mm
10:22 -10.6 °C -13.2 °C 34462.7 hPa WSW 10.3 km/h 23.3 km/h 73 % 0 mm
10:27 -10.7 °C -12.7 °C 34452.6 hPa SW 10.3 km/h 23.3 km/h 78 % 0 mm
10:37 -10.8 °C -13.2 °C 34452.6 hPa WSW 18.2 km/h 25.9 km/h 75 % 0 mm
10:42 -10.7 °C -13.2 °C 34452.6 hPa NW 7.7 km/h 25.9 km/h 74 % 0 mm
10:47 -10.7 °C -13.2 °C 34452.6 hPa SW 7.7 km/h 25.9 km/h 74 % 0 mm
10:52 -10.7 °C -13.2 °C 34452.6 hPa SW 7.7 km/h 25.9 km/h 74 % 0 mm
10:57 -10.5 °C -13.1 °C 34452.6 hPa SW 7.7 km/h 23.3 km/h 73 % 0 mm
11:02 -10.7 °C -13.5 °C 34452.6 hPa WSW 7.7 km/h 23.3 km/h 71 % 0 mm
11:12 -10.4 °C -13.1 °C 34442.4 hPa WSW 10.3 km/h 28.5 km/h 72 % 0 mm
11:17 -10.3 °C -13.1 °C 34442.4 hPa SW 12.9 km/h 28.5 km/h 72 % 0 mm
11:22 -10.4 °C -13.6 °C 34442.4 hPa SSW 10.3 km/h 25.9 km/h 69 % 0 mm
11:27 -10.3 °C -13.1 °C 34442.4 hPa SW 10.3 km/h 25.9 km/h 72 % 0 mm
11:32 -10.2 °C -13.1 °C 34442.4 hPa SW 12.9 km/h 25.9 km/h 71 % 0 mm
11:37 -10.1 °C -13.3 °C 34442.4 hPa SW 15.6 km/h 23.3 km/h 68 % 0 mm
11:42 -10.1 °C -13.1 °C 34428.8 hPa WSW 7.7 km/h 23.3 km/h 70 % 0 mm
11:47 -10.1 °C -12.8 °C 34428.8 hPa SW 18.2 km/h 23.3 km/h 72 % 0 mm
11:52 -10.2 °C -13.1 °C 34428.8 hPa SW 10.3 km/h 23.3 km/h 71 % 0 mm
11:57 -10.2 °C -12.8 °C 34428.8 hPa South 7.7 km/h 20.8 km/h 73 % 0 mm
12:02 -10.3 °C -12.9 °C 34428.8 hPa SW 2.6 km/h 20.8 km/h 73 % 0 mm
12:12 -10.1 °C -12.4 °C 34418.7 hPa NE 5.1 km/h 18.2 km/h 76 % 0 mm
12:17 -9.8 °C -12.7 °C 34418.7 hPa West 12.9 km/h 20.8 km/h 71 % 0 mm
12:22 -9.9 °C -12.7 °C 34418.7 hPa SW 12.9 km/h 20.8 km/h 72 % 0 mm
12:37 -9.4 °C -12.4 °C 34405.1 hPa West 12.9 km/h 20.8 km/h 70 % 0 mm
12:42 -9.2 °C -12.5 °C 34395 hPa SSW 5.1 km/h 20.8 km/h 68 % 0 mm
12:52 -9.2 °C -12.5 °C 34395 hPa SW 7.7 km/h 20.8 km/h 68 % 0 mm
12:57 -9.1 °C -12.3 °C 34405.1 hPa SE 10.3 km/h 20.8 km/h 68 % 0 mm
13:02 -9 °C -12.7 °C 34395 hPa SW 12.9 km/h 18.2 km/h 65 % 0 mm
13:07 -9 °C -12.7 °C 34395 hPa SW 7.7 km/h 23.3 km/h 65 % 0 mm
13:12 -8.8 °C -12.1 °C 34395 hPa SE 5.1 km/h 23.3 km/h 68 % 0 mm
13:17 -8.7 °C -11.9 °C 34384.8 hPa ENE 2.6 km/h 18.2 km/h 68 % 0 mm
13:22 -8.5 °C -12.2 °C 34384.8 hPa West 7.7 km/h 20.8 km/h 65 % 0 mm
13:27 -8.4 °C -12.1 °C 34384.8 hPa NW 5.1 km/h 20.8 km/h 65 % 0 mm
13:32 -8.4 °C -12.8 °C 34371.3 hPa WSW 5.1 km/h 20.8 km/h 60 % 0 mm
13:37 -8.6 °C -12.2 °C 34371.3 hPa WSW 7.7 km/h 20.8 km/h 65 % 0 mm
13:42 -8.4 °C -12.1 °C 34371.3 hPa SW 12.9 km/h 20.8 km/h 65 % 0 mm
13:47 -8.6 °C -13.2 °C 34371.3 hPa WNW 7.7 km/h 20.8 km/h 58 % 0 mm
13:52 -8.5 °C -12.4 °C 34371.3 hPa West 7.7 km/h 20.8 km/h 63 % 0 mm
13:57 -8.5 °C -12.7 °C 34361.1 hPa WSW 7.7 km/h 20.8 km/h 61 % 0 mm
14:02 -8.5 °C -12.6 °C 34347.6 hPa South 2.6 km/h 20.8 km/h 62 % 0 mm
14:12 -8.3 °C -12.7 °C 34347.6 hPa West 10.3 km/h 20.8 km/h 60 % 0 mm
14:22 -8.1 °C -12.3 °C 34337.4 hPa SW 10.3 km/h 18.2 km/h 61 % 0 mm
14:27 -8.2 °C -12.8 °C 34327.3 hPa West 12.9 km/h 23.3 km/h 58 % 0 mm
14:32 -8 °C -11.9 °C 34327.3 hPa SW 10.3 km/h 23.3 km/h 63 % 0 mm
14:42 -8 °C -12.7 °C 34313.7 hPa SW 10.3 km/h 23.3 km/h 58 % 0 mm
14:47 -7.9 °C -12.4 °C 34313.7 hPa WSW 12.9 km/h 20.8 km/h 59 % 0 mm
14:52 -8.2 °C -13.4 °C 34313.7 hPa West 12.9 km/h 20.8 km/h 54 % 0 mm
14:57 -8 °C -12.2 °C 34313.7 hPa West 5.1 km/h 20.8 km/h 61 % 0 mm
15:02 -7.8 °C -12.5 °C 34313.7 hPa SW 12.9 km/h 18.2 km/h 58 % 0 mm
15:07 -7.7 °C -12.8 °C 34303.6 hPa WSW 18.2 km/h 18.2 km/h 55 % 0 mm
15:12 -7.8 °C -12.4 °C 34303.6 hPa West 7.7 km/h 18.2 km/h 58 % 0 mm
15:17 -7.8 °C -12.8 °C 34303.6 hPa SE 12.9 km/h 20.8 km/h 56 % 0 mm
15:22 -7.8 °C -12.6 °C 34303.6 hPa West 7.7 km/h 23.3 km/h 57 % 0 mm
15:27 -7.7 °C -12.8 °C 34303.6 hPa WSW 7.7 km/h 23.3 km/h 55 % 0 mm
15:32 -7.7 °C -12.7 °C 34303.6 hPa WSW 5.1 km/h 23.3 km/h 56 % 0 mm
15:37 -7.7 °C -13.1 °C 34293.4 hPa SSW 15.6 km/h 23.3 km/h 53 % 0 mm
15:42 -7.7 °C -13 °C 34293.4 hPa West 2.6 km/h 23.3 km/h 54 % 0 mm
15:47 -7.7 °C -12.8 °C 34293.4 hPa WSW 7.7 km/h 23.3 km/h 55 % 0 mm
15:52 -7.6 °C -13.2 °C 34293.4 hPa WSW 15.6 km/h 20.8 km/h 52 % 0 mm
15:57 -7.7 °C -12.6 °C 34293.4 hPa South 7.7 km/h 23.3 km/h 56 % 0 mm
16:02 -7.6 °C -13.3 °C 34279.9 hPa WNW 5.1 km/h 23.3 km/h 51 % 0 mm
16:07 -7.6 °C -13 °C 34279.9 hPa SSW 7.7 km/h 23.3 km/h 53 % 0 mm
16:12 -7.4 °C -12.9 °C 34279.9 hPa South 12.9 km/h 23.3 km/h 53 % 0 mm
16:17 -7.6 °C -13.3 °C 34269.7 hPa WSW 7.7 km/h 20.8 km/h 51 % 0 mm
16:22 -7.6 °C -12.8 °C 34269.7 hPa West 10.3 km/h 18.2 km/h 54 % 0 mm
16:27 -7.6 °C -13.2 °C 34269.7 hPa WNW 10.3 km/h 18.2 km/h 52 % 0 mm
16:32 -7.6 °C -12.9 °C 34269.7 hPa SW 10.3 km/h 18.2 km/h 54 % 0 mm
16:37 -7.6 °C -13.1 °C 34269.7 hPa SW 10.3 km/h 23.3 km/h 52 % 0 mm
16:42 -7.6 °C -13.1 °C 34256.2 hPa NNW 5.1 km/h 23.3 km/h 52 % 0 mm
16:47 -7.4 °C -12.7 °C 34256.2 hPa WNW 7.7 km/h 23.3 km/h 54 % 0 mm
16:52 -7.5 °C -12.6 °C 34256.2 hPa SW 2.6 km/h 20.8 km/h 55 % 0 mm
16:57 -7.7 °C -13.3 °C 34256.2 hPa WSW 5.1 km/h 20.8 km/h 52 % 0 mm
17:02 -8 °C -13.1 °C 34256.2 hPa SW 5.1 km/h 20.8 km/h 55 % 0 mm
17:07 -8.1 °C -12.7 °C 34256.2 hPa West 7.7 km/h 18.2 km/h 58 % 0 mm
17:12 -8.3 °C -13.1 °C 34256.2 hPa WSW 2.6 km/h 18.2 km/h 57 % 0 mm
17:17 -8.4 °C -12.7 °C 34256.2 hPa SW 2.6 km/h 10.3 km/h 61 % 0 mm
17:22 -8.6 °C -12.5 °C 34256.2 hPa SW 2.6 km/h 10.3 km/h 63 % 0 mm
17:32 -8.7 °C -12.3 °C 34246 hPa Calm   7.7 km/h 65 % 0 mm
17:37 -8.7 °C -12.3 °C 34246 hPa SSW 2.6 km/h 10.3 km/h 65 % 0 mm
17:42 -8.7 °C -12.4 °C 34246 hPa Calm   10.3 km/h 65 % 0 mm
17:47 -8.7 °C -12.4 °C 34246 hPa SW 2.6 km/h 10.3 km/h 65 % 0 mm
17:52 -8.7 °C -12.1 °C 34235.8 hPa WSW 2.6 km/h 5.1 km/h 67 % 0 mm
17:57 -8.7 °C -12 °C 34235.8 hPa Calm   5.1 km/h 68 % 0 mm
18:02 -8.8 °C -11.9 °C 34235.8 hPa Calm   5.1 km/h 69 % 0 mm
18:12 -8.9 °C -11.9 °C 34222.3 hPa Calm   5.1 km/h 71 % 0 mm
18:22 -9.1 °C -11.9 °C 34212.1 hPa WSW 2.6 km/h 2.6 km/h 71 % 0 mm
18:27 -9.3 °C -11.9 °C 34222.3 hPa Calm   2.6 km/h 73 % 0 mm
18:37 -9.6 °C -12.1 °C 34222.3 hPa SW 2.6 km/h 2.6 km/h 74 % 0 mm
18:42 -9.6 °C -12.2 °C 34222.3 hPa SSE 2.6 km/h 7.7 km/h 74 % 0 mm
18:47 -9.7 °C -12.1 °C 34222.3 hPa SW 5.1 km/h 7.7 km/h 75 % 0 mm
18:57 -9.9 °C -12.1 °C 34212.1 hPa WSW 5.1 km/h 10.3 km/h 77 % 0 mm
19:02 -9.8 °C -11.9 °C 34212.1 hPa SW 12.9 km/h 12.9 km/h 78 % 0 mm
19:07 -9.7 °C -11.9 °C 34212.1 hPa SW 12.9 km/h 15.6 km/h 77 % 0 mm
19:12 -9.6 °C -11.8 °C 34212.1 hPa SW 7.7 km/h 15.6 km/h 77 % 0 mm
19:17 -9.7 °C -11.8 °C 34212.1 hPa SW 10.3 km/h 15.6 km/h 78 % 0 mm
19:22 -9.8 °C -11.8 °C 34198.6 hPa SW 2.6 km/h 15.6 km/h 79 % 0 mm
19:27 -9.9 °C -11.8 °C 34198.6 hPa SW 2.6 km/h 10.3 km/h 80 % 0 mm
19:32 -10.1 °C -11.9 °C 34198.6 hPa SW 2.6 km/h 10.3 km/h 81 % 0 mm
19:37 -10.3 °C -11.9 °C 34198.6 hPa Calm   7.7 km/h 83 % 0 mm
19:42 -10.4 °C -11.9 °C 34198.6 hPa Calm   7.7 km/h 84 % 0 mm
19:47 -10.6 °C -12 °C 34188.4 hPa Calm   5.1 km/h 85 % 0 mm
19:52 -10.7 °C -12.1 °C 34188.4 hPa Calm   5.1 km/h 85 % 0 mm
19:57 -10.8 °C -12.2 °C 34178.3 hPa Calm   2.6 km/h 85 % 0 mm
20:02 -10.9 °C -12.3 °C 34178.3 hPa Calm   2.6 km/h 85 % 0 mm
20:12 -11.1 °C -12.4 °C 34178.3 hPa Calm   2.6 km/h 86 % 0 mm
20:17 -11.3 °C -12.6 °C 34178.3 hPa Calm   2.6 km/h 86 % 0 mm
20:27 -11.6 °C -12.6 °C 34164.7 hPa Calm     88 % 0 mm
20:37 -11.8 °C -12.8 °C 34154.6 hPa Calm     89 % 0 mm
20:42 -12 °C -12.9 °C 34154.6 hPa Calm     90 % 0 mm
20:47 -12 °C -12.8 °C 34144.4 hPa Calm     91 % 0 mm
20:52 -11.9 °C -12.6 °C 34144.4 hPa Calm     92 % 0 mm
20:57 -11.9 °C -12.7 °C 34144.4 hPa Calm     91 % 0 mm
21:02 -12.1 °C -12.8 °C 34144.4 hPa Calm     91 % 0 mm
21:07 -12.1 °C -12.8 °C 34144.4 hPa Calm     92 % 0 mm
21:12 -12.1 °C -12.8 °C 34130.9 hPa Calm     92 % 0 mm
21:17 -12.2 °C -12.8 °C 34130.9 hPa Calm   2.6 km/h 92 % 0 mm
21:22 -12.2 °C -12.9 °C 34130.9 hPa Calm   2.6 km/h 92 % 0 mm
21:27 -12.2 °C -12.8 °C 34120.7 hPa Calm   2.6 km/h 93 % 0 mm
21:32 -12.3 °C -12.9 °C 34130.9 hPa Calm   2.6 km/h 92 % 0 mm
21:37 -12.4 °C -13.2 °C 34120.7 hPa Calm   2.6 km/h 91 % 0 mm
21:42 -12.5 °C -13.3 °C 34120.7 hPa Calm   2.6 km/h 91 % 0 mm
21:47 -12.6 °C -13.3 °C 34120.7 hPa Calm   2.6 km/h 92 % 0 mm
21:57 -12.5 °C -13.1 °C 34120.7 hPa Calm     93 % 0 mm
22:07 -12.4 °C -13.1 °C 34120.7 hPa Calm   2.6 km/h 93 % 0 mm
22:12 -12.5 °C -13.2 °C 34120.7 hPa Calm   2.6 km/h 92 % 0 mm
22:17 -12.6 °C -13.2 °C 34107.2 hPa Calm   2.6 km/h 92 % 0 mm
22:22 -12.6 °C -13.2 °C 34107.2 hPa Calm   2.6 km/h 93 % 0 mm
22:27 -12.6 °C -13.3 °C 34107.2 hPa Calm   2.6 km/h 92 % 0 mm
22:32 -12.6 °C -13.3 °C 34107.2 hPa Calm   2.6 km/h 92 % 0 mm
22:37 -12.7 °C -13.3 °C 34107.2 hPa Calm   2.6 km/h 93 % 0 mm
22:42 -12.7 °C -13.3 °C 34107.2 hPa Calm   2.6 km/h 93 % 0 mm
22:47 -12.7 °C -13.3 °C 34107.2 hPa Calm   2.6 km/h 92 % 0 mm
22:52 -12.7 °C -13.4 °C 34107.2 hPa Calm   2.6 km/h 92 % 0 mm
22:57 -12.7 °C -13.4 °C 34097 hPa Calm   2.6 km/h 92 % 0 mm
23:02 -12.8 °C -13.5 °C 34097 hPa Calm   2.6 km/h 92 % 0 mm
23:12 -12.9 °C -13.6 °C 34086.9 hPa Calm   2.6 km/h 92 % 0 mm
23:17 -12.9 °C -13.6 °C 34086.9 hPa Calm     92 % 0 mm
23:27 -12.7 °C -13.5 °C 34073.3 hPa Calm     91 % 0 mm
23:32 -12.6 °C -13.5 °C 34086.9 hPa Calm     90 % 0 mm
23:37 -12.5 °C -13.4 °C 34073.3 hPa Calm   2.6 km/h 90 % 0 mm
23:42 -12.4 °C -13.3 °C 34073.3 hPa Calm   2.6 km/h 90 % 0 mm
23:47 -12.2 °C -13.1 °C 34063.2 hPa Calm   2.6 km/h 90 % 0 mm
23:52 -12.1 °C -13 °C 34063.2 hPa SW 2.6 km/h 2.6 km/h 89 % 0 mm
23:57 -11.8 °C -13 °C 34063.2 hPa SSE 2.6 km/h 7.7 km/h 87 % 0 mm
Meteo18
Compliments of Weather Underground - 4 mb

Script developed by  Jim McMurry - jmcmurry@mwt.net Adapted for the template by  Wim van der Kuil - Leuven-Template.eu

You find our weather info also at:

European Weather Network

Weather Underground

Equipment we use:

Weather-station
Davis Vue

Weather-program
Meteobridge

Weather-server
Raspberry PI 2 B+

Provider
1 and 1

Davis Vue

Meteobridge

Raspberry PI 2 B+

1 and 1